Glasco, KS

5:29 PM CDT on July 11, 2014 (GMT -0500)
Blosser Municipal (KCNK) Elev 1483 ft | 39.55 °N, 97.65 °W | Change Station

Current weather conditions updated 34 minutes ago

Clear
Clear
96 °F
Feels Like 97 °F
N
18
Wind Variable Wind from South

Tomorrow is forecast to be nearly the same temperature as today. Late night thunderstorms tomorrow night.

Today
High -- | Low -- °F
--% Chance of Precip.
Yesterday
High -- | Low -- °F
Precip. -- in
6:14 AM 8:59 PM
Full, 100% visible
Pressure 29.90 in
Visibility 10.0 miles
Clouds Clear
Heat Index 97 °F
Dew Point 63 °F
Humidity 33%
Rainfall 0.00 in
Snow Depth Not available.
UV 6 out of 12
Pollen 4.80 out of 12
Air Quality Not available.
Flu Activity No Activity
METAR KCNK 112155Z AUTO 19016KT 10SM CLR 36/17 A2995 RMK AO2 SLP123 T03560172

More Conditions Fewer Conditions

Pressure 29.90 in
Visibility 10.0 miles
Clouds Clear
Heat Index 97 °F
Dew Point 63 °F
Humidity 33%
Rainfall 0.00 in
Snow Depth Not available.
UV 6 out of 12
Pollen 4.80 out of 12
Air Quality Not available.
Flu Activity No Activity
METAR KCNK 112155Z AUTO 19016KT 10SM CLR 36/17 A2995 RMK AO2 SLP123 T03560172

More Conditions Fewer Conditions

10-Day Weather Forecast

Almanac

Astronomy

Jul. 11, 2014 Rise Set
Actual Time 6:14 AM CDT 8:59 PM CDT
Civil Twilight 5:42 AM CDT 9:30 PM CDT
Nautical Twilight 5:02 AM CDT 10:10 PM CDT
Astronomical Twilight 4:17 AM CDT 10:55 PM CDT
Moon 8:11 PM CDT 5:27 AM CDT
Length of Visible Light 15h 48m
Length of Day
14h 45m
Tomorrow will be 1m 8s shorter.
Full, 100% of the Moon is Illuminated
Today
Full
Jul 12
Full
Jul 18
Last Quarter
Jul 26
New
Aug 3
First Quarter

Today's Extremes

State Highs State Lows

Community

WunderPhotos

Upload Photos

1,732,576 photos uploaded!

WunderBlogs® & News

Nearby

Snow Depth

Station Depth Elevation
No new snow has been reported.

Earthquake Activity

City Distance Mag. Time & Date
No recent earthquake activity has been reported nearby.
Minimum magnitude displayed is 2.5.

Coastal Water Temperatures

Place Temperature
No Stations Reporting

Nearby Weather Stations

Station Location Temp. Heat Index Dew Point Humidity Wind Precip. Elev Updated Type
Simpson KS, Beloit, KS 98.1 °F 110 °F 74 °F 46% South  at  19.7 mph - / hr 1342 ft 5:25 PM CDT Normal
Chancy's Pond, Delphos, KS 96.2 °F 102 °F 69 °F 41% SSE  at  19.0 mph 0.00 in / hr 1375 ft 5:29 PM CDT Rapid Fire
Joe's Place, Concordia, KS 96.8 °F 100 °F 66 °F 36% SW  at  9.0 mph 0.00 in / hr 1440 ft 5:29 PM CDT Rapid Fire
Center Township, BELOIT, KS 96.2 °F 101 °F 68 °F 40% SSE  at  12.0 mph 0.00 in / hr 1504 ft 5:29 PM CDT Normal
ERC Field, Minneapolis, KS 98.2 °F 102 °F 66 °F 35% South  at  15.5 mph - / hr 1309 ft 5:25 PM CDT Normal

Show More Stations Show Fewer Stations